Terminal Aerodrome Forecast
Issued by NWS

Home | Current Version | Previous Version | Text Only | Print | Product List | Glossary On
Versions: 1 2 3 4 5 6 7 8 9 10 11 12 13 14
739
FTUS42 KMHX 241137
TAFISO
TAF
KISO 241137Z 2412/2512 21008KT P6SM SCT010
     FM241400 22010KT P6SM BKN025
     FM241800 21008G16KT P6SM VCTS SCT050CB BKN100
     FM250000 21009KT P6SM VCSH BKN250
     FM250900 VRB03KT 6SM BR SCT250
      AMD LTD TO CLD VIS AND WIND=

USA.gov is the U.S. government's official web portal to all federal, state and local government web resources and services.